PWSweather.com
Personal Weather Stations
Station Observations
ABQWX
Albuquerque, NM 87110

Albuquerque, NM 87110

Lat: 35.1305, Lon: -106.58571

Elevation: 5210

Station Type: LaCrosse

http://www.albuquerqueweather.info/

High Low Average
Temperature 99.7°F37.6°C 72.3°F22.4°C 85.9°F29.9°C
Dew Point 55.2°F12.9°C 44.4°F6.9°C 50.2°F10.1°C
Winds 4.1 mph 6.6 kmh 0.1 mph 0.2 kmh 2.0 mph SW3.2 kmh SW
Wind Gusts 10.5 mph16.9 kmh 0.2 mph0.3 kmh 5.0 mph8.0 kmh
Humidity 48% 16% 31%
Pressure 30.19 in1022.4 mb 30.08 in1018.6 mb -
Precipitation 0.00 in0.0 mm - -
Hour Temp Dew Point Humidity Winds Wind Gusts Pressure Precip Precip Rate Daily Precip Total
12:00 AM 80.8°F27.1°C 50.6°F10.3°C 35% 4.0 mph NNE6.4 kmh NNE 6.5 mph10.5 kmh 30.13 in1020.3 mb 0.00 in0.0 mm 0.00 in/hr0.0 mm/hr 0.00 in0.0 mm
01:00 AM 79.9°F26.6°C 51.3°F10.7°C 37% 2.9 mph NW4.7 kmh NW 4.7 mph7.6 kmh 30.12 in1020.0 mb 0.00 in0.0 mm 0.00 in/hr0.0 mm/hr 0.00 in0.0 mm
02:00 AM 78.4°F25.8°C 51.4°F10.8°C 39% 1.7 mph NW2.7 kmh NW 3.4 mph5.5 kmh 30.11 in1019.6 mb 0.00 in0.0 mm 0.00 in/hr0.0 mm/hr 0.00 in0.0 mm
03:00 AM 76.5°F24.7°C 52.3°F11.3°C 43% 1.2 mph SE1.9 kmh SE 5.4 mph8.7 kmh 30.12 in1020.0 mb 0.00 in0.0 mm 0.00 in/hr0.0 mm/hr 0.00 in0.0 mm
04:00 AM 74.3°F23.5°C 51.6°F10.9°C 45% 0.4 mph E0.6 kmh E 1.1 mph1.8 kmh 30.13 in1020.3 mb 0.00 in0.0 mm 0.00 in/hr0.0 mm/hr 0.00 in0.0 mm
05:00 AM 72.7°F22.6°C 51.3°F10.7°C 47% 0.7 mph ESE1.1 kmh ESE 2.5 mph4.0 kmh 30.14 in1020.7 mb 0.00 in0.0 mm 0.00 in/hr0.0 mm/hr 0.00 in0.0 mm
06:00 AM 72.3°F22.4°C 51.0°F10.6°C 47% 1.7 mph SE2.7 kmh SE 4.0 mph6.4 kmh 30.16 in1021.3 mb 0.00 in0.0 mm 0.00 in/hr0.0 mm/hr 0.00 in0.0 mm
07:00 AM 73.0°F22.8°C 52.2°F11.2°C 48% 1.3 mph ESE2.1 kmh ESE 2.7 mph4.3 kmh 30.16 in1021.3 mb 0.00 in0.0 mm 0.00 in/hr0.0 mm/hr 0.00 in0.0 mm
08:00 AM 75.9°F24.4°C 53.0°F11.7°C 45% 1.6 mph S2.6 kmh S 3.1 mph5.0 kmh 30.18 in1022.0 mb 0.00 in0.0 mm 0.00 in/hr0.0 mm/hr 0.00 in0.0 mm
09:00 AM 83.5°F28.6°C 55.2°F12.9°C 38% 1.4 mph S2.3 kmh S 2.7 mph4.3 kmh 30.19 in1022.4 mb 0.00 in0.0 mm 0.00 in/hr0.0 mm/hr 0.00 in0.0 mm
11:00 AM 86.0°F30.0°C 54.4°F12.4°C 34% 3.4 mph SSW5.5 kmh SSW 7.4 mph11.9 kmh 30.19 in1022.4 mb 0.00 in0.0 mm 0.00 in/hr0.0 mm/hr 0.00 in0.0 mm
12:00 PM 91.4°F33.0°C 54.7°F12.6°C 29% 2.4 mph SSW3.9 kmh SSW 4.0 mph6.4 kmh 30.17 in1021.7 mb 0.00 in0.0 mm 0.00 in/hr0.0 mm/hr 0.00 in0.0 mm
01:00 PM 95.7°F35.4°C 50.8°F10.4°C 22% 3.3 mph S5.3 kmh S 7.4 mph11.9 kmh 30.16 in1021.3 mb 0.00 in0.0 mm 0.00 in/hr0.0 mm/hr 0.00 in0.0 mm
02:00 PM 96.4°F35.8°C 51.4°F10.8°C 22% 3.3 mph WNW5.3 kmh WNW 6.9 mph11.1 kmh 30.13 in1020.3 mb 0.00 in0.0 mm 0.00 in/hr0.0 mm/hr 0.00 in0.0 mm
03:00 PM 98.8°F37.1°C 52.1°F11.2°C 21% 4.1 mph WSW6.6 kmh WSW 8.1 mph13.0 kmh 30.11 in1019.6 mb 0.00 in0.0 mm 0.00 in/hr0.0 mm/hr 0.00 in0.0 mm
04:00 PM 99.5°F37.5°C 49.9°F9.9°C 19% 3.6 mph SW5.8 kmh SW 8.5 mph13.7 kmh 30.10 in1019.3 mb 0.00 in0.0 mm 0.00 in/hr0.0 mm/hr 0.00 in0.0 mm
05:00 PM 99.7°F37.6°C 47.1°F8.4°C 17% 3.4 mph W5.5 kmh W 10.5 mph16.9 kmh 30.09 in1019.0 mb 0.00 in0.0 mm 0.00 in/hr0.0 mm/hr 0.00 in0.0 mm
06:00 PM 98.2°F36.8°C 44.4°F6.9°C 16% 4.0 mph NW6.4 kmh NW 7.6 mph12.2 kmh 30.08 in1018.6 mb 0.00 in0.0 mm 0.00 in/hr0.0 mm/hr 0.00 in0.0 mm
07:00 PM 94.3°F34.6°C 45.7°F7.6°C 19% 2.7 mph SW4.3 kmh SW 5.6 mph9.0 kmh 30.08 in1018.6 mb 0.00 in0.0 mm 0.00 in/hr0.0 mm/hr 0.00 in0.0 mm
08:00 PM 91.9°F33.3°C 46.4°F8.0°C 21% 0.5 mph WSW0.8 kmh WSW 2.2 mph3.5 kmh 30.09 in1019.0 mb 0.00 in0.0 mm 0.00 in/hr0.0 mm/hr 0.00 in0.0 mm
09:00 PM 88.9°F31.6°C 46.3°F7.9°C 23% 2.1 mph SW3.4 kmh SW 4.3 mph6.9 kmh 30.11 in1019.6 mb 0.00 in0.0 mm 0.00 in/hr0.0 mm/hr 0.00 in0.0 mm
10:00 PM 85.6°F29.8°C 46.8°F8.2°C 26% 2.3 mph S3.7 kmh S 4.3 mph6.9 kmh 30.14 in1020.7 mb 0.00 in0.0 mm 0.00 in/hr0.0 mm/hr 0.00 in0.0 mm
11:00 PM 82.8°F28.2°C 47.3°F8.5°C 29% 0.1 mph WSW0.2 kmh WSW 0.2 mph0.3 kmh 30.15 in1021.0 mb 0.00 in0.0 mm 0.00 in/hr0.0 mm/hr 0.00 in0.0 mm